createdAt,value
2022-08-07T00:00:34.300Z,5.000000
2022-08-07T00:05:17.654Z,4.000000
2022-08-07T00:10:26.436Z,1.333333
2022-08-07T00:15:24.190Z,0.000000
2022-08-07T00:20:29.991Z,4.666667
2022-08-07T00:25:41.147Z,7.000000
2022-08-07T00:30:33.352Z,7.000000
2022-08-07T00:35:36.709Z,7.000000
2022-08-07T00:40:36.265Z,7.000000
2022-08-07T00:45:21.320Z,7.000000
2022-08-07T00:50:46.113Z,5.071429
2022-08-07T00:56:02.250Z,4.000000
2022-08-07T01:00:29.327Z,6.000000
2022-08-07T01:05:32.102Z,7.000000
2022-08-07T01:10:34.299Z,7.000000
2022-08-07T01:15:17.615Z,7.000000
2022-08-07T01:20:18.413Z,5.000000
2022-08-07T01:25:20.889Z,4.000000
2022-08-07T01:30:27.064Z,5.928571
2022-08-07T01:35:25.591Z,7.000000
2022-08-07T01:40:28.432Z,5.000000
2022-08-07T01:45:36.367Z,4.000000
2022-08-07T01:50:33.695Z,4.000000
2022-08-07T01:55:35.608Z,4.000000
2022-08-07T02:00:18.048Z,4.666667
2022-08-07T02:05:47.510Z,5.000000
2022-08-07T02:10:23.133Z,3.714286
2022-08-07T02:15:26.415Z,3.000000
2022-08-07T02:20:27.786Z,5.666667
2022-08-07T02:26:11.438Z,7.000000
2022-08-07T02:26:35.663Z,7.000000
2022-08-07T02:30:32.120Z,5.000000
2022-08-07T02:36:28.223Z,4.000000
2022-08-07T02:40:30.919Z,6.000000
2022-08-07T02:46:00.400Z,7.000000
2022-08-07T02:50:20.954Z,7.000000
2022-08-07T02:55:28.422Z,7.000000
2022-08-07T03:00:25.351Z,7.666667
2022-08-07T03:05:29.173Z,8.000000
2022-08-07T03:10:29.926Z,5.333333
2022-08-07T03:15:47.701Z,4.000000
2022-08-07T03:20:33.879Z,4.666667
2022-08-07T03:25:16.214Z,5.000000
2022-08-07T03:30:18.999Z,12.333333
2022-08-07T03:35:26.078Z,16.000000
2022-08-07T03:40:23.397Z,10.857143
2022-08-07T03:45:30.666Z,8.000000
2022-08-07T03:50:28.972Z,8.666667
2022-08-07T03:55:57.426Z,9.000000
2022-08-07T04:00:35.607Z,6.333333
2022-08-07T04:05:17.366Z,5.000000
2022-08-07T04:10:20.842Z,7.666667
2022-08-07T04:15:23.987Z,9.000000
2022-08-07T04:20:26.507Z,8.333333
2022-08-07T04:25:29.628Z,8.000000
2022-08-07T04:30:43.401Z,10.666667
2022-08-07T04:35:35.668Z,12.000000
2022-08-07T04:40:17.570Z,10.666667
2022-08-07T04:45:57.369Z,10.000000
2022-08-07T04:50:22.515Z,9.357143
2022-08-07T04:58:11.698Z,9.000000
2022-08-07T04:58:15.788Z,9.000000
2022-08-07T04:58:16.886Z,9.000000
2022-08-07T05:00:30.705Z,9.000000
2022-08-07T05:05:52.661Z,9.000000
2022-08-07T05:10:33.292Z,11.000000
2022-08-07T05:15:35.861Z,12.000000
2022-08-07T05:20:18.135Z,12.000000
2022-08-07T05:25:26.336Z,12.000000
2022-08-07T05:30:30.284Z,13.285714
2022-08-07T05:35:33.912Z,14.000000
2022-08-07T05:40:50.591Z,12.666667
2022-08-07T05:45:47.455Z,12.000000
2022-08-07T05:50:33.802Z,12.000000
2022-08-07T05:56:03.735Z,12.000000
2022-08-07T06:00:18.476Z,12.000000
2022-08-07T06:05:28.082Z,12.000000
2022-08-07T06:10:23.786Z,13.928571
2022-08-07T06:15:39.329Z,15.000000
2022-08-07T06:20:49.863Z,15.666667
2022-08-07T06:25:34.731Z,16.000000
2022-08-07T06:30:38.048Z,18.000000
2022-08-07T06:35:18.360Z,19.000000
2022-08-07T06:40:21.641Z,18.333333
2022-08-07T06:45:23.507Z,18.000000
2022-08-07T06:50:25.976Z,20.666667
2022-08-07T06:56:00.328Z,22.000000
2022-08-07T07:00:31.236Z,21.333333
2022-08-07T07:06:04.074Z,21.000000
2022-08-07T07:10:16.466Z,19.666667
2022-08-07T07:15:26.410Z,19.000000
2022-08-07T07:20:21.341Z,20.333333
2022-08-07T07:26:32.687Z,21.000000
2022-08-07T07:26:35.115Z,21.000000
2022-08-07T07:30:37.841Z,19.000000
2022-08-07T07:35:28.610Z,18.000000
2022-08-07T07:40:31.503Z,19.333333
2022-08-07T07:46:37.587Z,20.000000
2022-08-07T07:46:55.765Z,20.000000
2022-08-07T07:50:35.771Z,18.666667
2022-08-07T07:55:19.793Z,18.000000
2022-08-07T08:00:31.437Z,16.000000
2022-08-07T08:05:24.847Z,15.000000
2022-08-07T08:10:35.671Z,15.666667
2022-08-07T08:15:57.864Z,16.000000
2022-08-07T08:20:32.766Z,16.000000
2022-08-07T08:25:42.308Z,16.000000
2022-08-07T08:30:19.572Z,16.666667
2022-08-07T08:35:20.166Z,17.000000
2022-08-07T08:40:23.573Z,15.714286
2022-08-07T08:45:26.643Z,15.000000
2022-08-07T08:50:39.712Z,14.333333
2022-08-07T08:55:55.167Z,14.000000
2022-08-07T09:00:33.370Z,15.333333
2022-08-07T09:05:37.765Z,16.000000
2022-08-07T09:10:18.197Z,16.000000
2022-08-07T09:16:20.266Z,16.000000
2022-08-07T09:16:30.361Z,16.000000
2022-08-07T09:20:35.496Z,19.214286
2022-08-07T09:25:26.125Z,21.000000
2022-08-07T09:30:28.977Z,24.333333
2022-08-07T09:36:04.630Z,26.000000
2022-08-07T09:40:33.848Z,29.333333
2022-08-07T09:47:49.517Z,31.000000
2022-08-07T09:47:51.886Z,31.000000
2022-08-07T09:47:59.502Z,31.000000
2022-08-07T09:50:19.453Z,33.666667
2022-08-07T09:55:29.575Z,35.000000
2022-08-07T10:00:24.352Z,40.142857
2022-08-07T10:05:58.143Z,43.000000
2022-08-07T10:10:28.296Z,48.333333
2022-08-07T10:15:30.940Z,51.000000
2022-08-07T10:20:33.746Z,61.666667
2022-08-07T10:25:20.857Z,67.000000
2022-08-07T10:30:19.681Z,62.333333
2022-08-07T10:35:25.764Z,60.000000
2022-08-07T10:40:30.254Z,67.333333
2022-08-07T10:45:44.551Z,71.000000
2022-08-07T10:50:30.590Z,66.333333
2022-08-07T10:55:38.013Z,64.000000
2022-08-07T11:00:36.414Z,64.000000
2022-08-07T11:05:17.987Z,64.000000
2022-08-07T11:10:20.459Z,60.000000
2022-08-07T11:15:26.274Z,58.000000
2022-08-07T11:20:25.239Z,58.000000
2022-08-07T11:25:28.144Z,58.000000
2022-08-07T11:30:42.017Z,58.666667
2022-08-07T11:35:33.605Z,59.000000
2022-08-07T11:40:35.878Z,69.666667
2022-08-07T11:45:20.500Z,75.000000
2022-08-07T11:50:32.195Z,81.000000
2022-08-07T11:56:12.028Z,84.000000
2022-08-07T11:56:28.501Z,84.000000
2022-08-07T12:00:27.618Z,86.666667
2022-08-07T12:05:41.309Z,88.000000
2022-08-07T12:10:30.626Z,92.000000
2022-08-07T12:15:35.695Z,94.000000
2022-08-07T12:20:36.547Z,88.666667
2022-08-07T12:26:03.466Z,86.000000
2022-08-07T12:26:29.944Z,86.000000
2022-08-07T12:30:23.465Z,90.666667
2022-08-07T12:35:24.133Z,93.000000
2022-08-07T12:41:01.971Z,102.333333
2022-08-07T12:45:29.193Z,107.000000
2022-08-07T12:50:34.141Z,91.000000
2022-08-07T12:55:40.593Z,83.000000
2022-08-07T13:00:31.084Z,89.666667
2022-08-07T13:06:03.062Z,93.000000
2022-08-07T13:10:39.671Z,85.666667
2022-08-07T13:15:29.754Z,82.000000
2022-08-07T13:20:29.115Z,83.333333
2022-08-07T13:25:30.657Z,84.000000
2022-08-07T13:30:40.827Z,83.333333
2022-08-07T13:35:16.038Z,83.000000
2022-08-07T13:40:36.761Z,71.666667
2022-08-07T13:46:20.698Z,66.000000
2022-08-07T13:46:31.355Z,66.000000
2022-08-07T13:50:33.121Z,70.285714
2022-08-07T13:55:27.130Z,72.000000
2022-08-07T14:00:30.611Z,52.000000
2022-08-07T14:05:37.301Z,42.000000
2022-08-07T14:10:42.038Z,34.666667
2022-08-07T14:15:18.788Z,31.000000
2022-08-07T14:20:42.442Z,25.666667
2022-08-07T14:25:23.371Z,23.000000
2022-08-07T14:30:32.609Z,21.666667
2022-08-07T14:35:43.168Z,21.000000
2022-08-07T14:40:35.012Z,19.000000
2022-08-07T14:46:51.823Z,18.000000
2022-08-07T14:50:16.041Z,18.666667
2022-08-07T14:55:19.242Z,19.000000
2022-08-07T15:00:30.276Z,17.666667
2022-08-07T15:05:24.684Z,17.000000
2022-08-07T15:10:29.615Z,16.333333
2022-08-07T15:15:29.710Z,16.000000
2022-08-07T15:22:43.435Z,16.666667
2022-08-07T15:25:36.777Z,17.000000
2022-08-07T15:30:17.275Z,17.000000
2022-08-07T15:36:02.636Z,17.000000
2022-08-07T15:40:34.393Z,16.357143
2022-08-07T15:45:24.826Z,16.000000
2022-08-07T15:51:01.317Z,16.666667
2022-08-07T15:55:53.581Z,17.000000
2022-08-07T16:00:33.868Z,17.666667
2022-08-07T16:05:36.051Z,18.000000
2022-08-07T16:10:17.743Z,14.666667
2022-08-07T16:15:55.750Z,13.000000
2022-08-07T16:20:33.899Z,14.928571
2022-08-07T16:25:54.513Z,16.000000
2022-08-07T16:30:31.913Z,12.666667
2022-08-07T16:35:51.971Z,11.000000
2022-08-07T16:40:33.922Z,11.666667
2022-08-07T16:46:33.016Z,12.000000
2022-08-07T16:47:12.080Z,12.000000
2022-08-07T16:50:37.026Z,14.666667
2022-08-07T16:55:21.124Z,16.000000
2022-08-07T17:00:29.836Z,15.285714
2022-08-07T17:06:02.325Z,15.000000
2022-08-07T17:06:41.056Z,15.000000
2022-08-07T17:10:30.388Z,13.666667
2022-08-07T17:15:44.448Z,13.000000
2022-08-07T17:20:34.839Z,8.333333
2022-08-07T17:25:17.161Z,6.000000
2022-08-07T17:30:20.516Z,10.666667
2022-08-07T17:35:49.664Z,13.000000
2022-08-07T17:40:30.177Z,11.000000
2022-08-07T17:45:27.473Z,10.000000
2022-08-07T17:50:30.532Z,11.333333
2022-08-07T17:56:01.094Z,12.000000
2022-08-07T18:00:34.491Z,11.333333
2022-08-07T18:05:21.572Z,11.000000
2022-08-07T18:10:32.180Z,9.000000
2022-08-07T18:15:20.523Z,8.000000
2022-08-07T18:21:12.328Z,6.714286
2022-08-07T18:21:51.722Z,6.714286
2022-08-07T18:25:40.792Z,6.000000
2022-08-07T18:30:33.032Z,9.333333
2022-08-07T18:35:30.929Z,11.000000
2022-08-07T18:40:42.702Z,11.000000
2022-08-07T18:45:44.168Z,11.000000
2022-08-07T18:50:38.863Z,11.666667
2022-08-07T18:55:41.214Z,12.000000
2022-08-07T19:00:32.089Z,9.857143
2022-08-07T19:05:26.992Z,9.000000
2022-08-07T19:10:31.464Z,7.000000
2022-08-07T19:16:04.931Z,6.000000
2022-08-07T19:17:00.488Z,6.000000
2022-08-07T19:20:35.920Z,9.333333
2022-08-07T19:26:21.831Z,11.000000
2022-08-07T19:26:28.717Z,11.000000
2022-08-07T19:31:05.607Z,11.666667
2022-08-07T19:31:59.769Z,11.666667
2022-08-07T19:35:24.277Z,12.000000
2022-08-07T19:40:31.475Z,10.000000
2022-08-07T19:46:05.988Z,9.000000
2022-08-07T19:50:44.467Z,10.333333
2022-08-07T19:55:56.966Z,11.000000
2022-08-07T20:00:28.168Z,11.666667
2022-08-07T20:05:21.620Z,12.000000
2022-08-07T20:10:37.169Z,12.000000
2022-08-07T20:15:32.718Z,12.000000
2022-08-07T20:20:29.689Z,8.000000
2022-08-07T20:25:31.918Z,6.000000
2022-08-07T20:30:34.250Z,10.000000
2022-08-07T20:35:20.544Z,12.000000
2022-08-07T20:40:33.541Z,11.333333
2022-08-07T20:45:32.928Z,11.000000
2022-08-07T20:46:32.287Z,11.000000
2022-08-07T20:50:24.449Z,11.714286
2022-08-07T20:55:26.686Z,12.000000
2022-08-07T21:00:29.077Z,10.666667
2022-08-07T21:05:52.694Z,10.000000
2022-08-07T21:10:34.634Z,12.666667
2022-08-07T21:15:18.661Z,14.000000
2022-08-07T21:20:29.687Z,11.333333
2022-08-07T21:25:21.753Z,10.000000
2022-08-07T21:30:24.515Z,10.000000
2022-08-07T21:35:34.498Z,10.000000
2022-08-07T21:40:36.028Z,10.666667
2022-08-07T21:46:09.315Z,11.000000
2022-08-07T21:50:36.468Z,11.666667
2022-08-07T21:55:19.418Z,12.000000
2022-08-07T22:00:22.619Z,12.000000
2022-08-07T22:05:44.893Z,12.000000
2022-08-07T22:10:26.150Z,10.000000
2022-08-07T22:16:39.489Z,9.000000
2022-08-07T22:16:39.712Z,9.000000
2022-08-07T22:20:31.212Z,9.000000
2022-08-07T22:25:36.316Z,9.000000
2022-08-07T22:30:16.027Z,8.333333
2022-08-07T22:35:19.027Z,8.000000
2022-08-07T22:40:21.954Z,9.333333
2022-08-07T22:46:21.341Z,10.000000
2022-08-07T22:47:02.923Z,10.000000
2022-08-07T22:50:29.034Z,9.333333
2022-08-07T22:55:29.975Z,9.000000
2022-08-07T23:00:32.521Z,9.666667
2022-08-07T23:06:10.027Z,10.000000
2022-08-07T23:10:36.329Z,9.333333
2022-08-07T23:16:04.962Z,9.000000
2022-08-07T23:20:51.730Z,9.666667
2022-08-07T23:25:28.323Z,10.000000
2022-08-07T23:30:37.969Z,9.333333
2022-08-07T23:35:29.607Z,9.000000
2022-08-07T23:40:32.192Z,9.000000
2022-08-07T23:46:01.665Z,9.000000
2022-08-07T23:50:18.293Z,9.000000
2022-08-07T23:55:52.986Z,9.000000
